Time;durP1;ratioP1;P1;durP2;ratioP2;P2;SDS_P1;SDS_P2;PMS_P1;PMS_P2;Temp;Humidity;BMP_temperature;BMP_pressure;BME280_temperature;BME280_humidity;BME280_pressure;Samples;Min_cycle;Max_cycle;Signal;HPM_P1;HPM_P2
2022/12/09 00:02:57;;;;;;;51.50;29.40;;;;;;;5.56;63.36;98316.34;226627;1242;138270;-64
2022/12/09 00:08:16;;;;;;;53.20;27.90;;;;;;;5.61;63.04;98308.73;227643;1233;138049;-64
2022/12/09 00:13:21;;;;;;;52.20;28.20;;;;;;;5.60;63.25;98311.77;227686;1228;139147;-65
2022/12/09 00:18:25;;;;;;;47.70;27.30;;;;;;;5.60;63.19;98312.25;226726;1241;138169;-63
2022/12/09 00:23:30;;;;;;;47.30;27.20;;;;;;;5.60;63.34;98312.99;226588;1237;138708;-63
2022/12/09 00:28:45;;;;;;;49.30;26.60;;;;;;;5.57;63.40;98312.08;226934;1249;138014;-63
2022/12/09 00:34:09;;;;;;;51.10;26.80;;;;;;;5.58;63.35;98314.67;227780;1234;138475;-65
2022/12/09 00:39:35;;;;;;;50.40;26.00;;;;;;;5.60;63.56;98323.91;227347;1247;138793;-64
2022/12/09 00:44:40;;;;;;;59.50;27.50;;;;;;;5.59;63.60;98329.05;226679;1235;138482;-64
2022/12/09 00:49:44;;;;;;;54.20;27.90;;;;;;;5.55;63.50;98336.15;226638;1249;138578;-64
2022/12/09 00:54:51;;;;;;;46.80;27.00;;;;;;;5.52;63.73;98335.42;226692;1241;139752;-64
2022/12/09 01:00:10;;;;;;;44.40;26.40;;;;;;;5.52;63.84;98334.02;226274;1238;139483;-64
2022/12/09 01:05:20;;;;;;;47.20;27.90;;;;;;;5.52;63.92;98336.12;226515;1254;138746;-64
2022/12/09 01:10:24;;;;;;;52.60;27.40;;;;;;;5.57;63.95;98336.38;226891;1249;139161;-64
2022/12/09 01:15:29;;;;;;;57.20;28.50;;;;;;;5.63;63.83;98330.08;226714;1234;138621;-63
2022/12/09 01:20:36;;;;;;;52.50;27.80;;;;;;;5.71;63.79;98331.57;226482;1241;139348;-64
2022/12/09 01:25:41;;;;;;;48.00;27.10;;;;;;;5.76;63.63;98336.41;226689;1238;138605;-62
2022/12/09 01:30:51;;;;;;;49.00;27.50;;;;;;;5.78;63.19;98333.16;226911;1241;139086;-62
2022/12/09 01:36:16;;;;;;;47.00;26.60;;;;;;;5.75;63.31;98336.27;226432;1251;138811;-64
2022/12/09 01:41:20;;;;;;;53.10;27.90;;;;;;;5.71;63.50;98335.27;227619;1247;139120;-63
2022/12/09 01:46:33;;;;;;;55.80;27.20;;;;;;;5.67;63.39;98331.08;226870;1240;138929;-64
2022/12/09 01:52:20;;;;;;;59.30;26.90;;;;;;;5.62;63.37;98333.62;226817;1244;139151;-63
2022/12/09 01:57:48;;;;;;;55.80;28.00;;;;;;;5.61;63.86;98336.69;226887;1238;138617;-64
2022/12/09 02:03:05;;;;;;;62.40;30.80;;;;;;;5.61;64.07;98332.65;227807;1227;138682;-63
2022/12/09 02:08:15;;;;;;;56.90;31.30;;;;;;;5.59;64.23;98331.00;226526;1231;137993;-64
2022/12/09 02:13:37;;;;;;;52.50;30.40;;;;;;;5.56;64.33;98329.73;226499;1242;138854;-63
2022/12/09 02:18:56;;;;;;;62.70;32.40;;;;;;;5.59;64.93;98319.54;226829;1255;138087;-63
2022/12/09 02:24:22;;;;;;;64.70;30.70;;;;;;;5.60;64.63;98313.87;226769;1233;139295;-65
2022/12/09 02:29:48;;;;;;;55.90;31.00;;;;;;;5.58;64.67;98309.73;226667;1255;138398;-64
2022/12/09 02:35:11;;;;;;;53.10;30.90;;;;;;;5.58;64.77;98309.77;226433;1236;138510;-67
2022/12/09 02:40:49;;;;;;;56.60;33.00;;;;;;;5.55;64.67;98309.38;226748;1234;138703;-66
2022/12/09 02:45:56;;;;;;;57.80;32.70;;;;;;;5.50;64.78;98302.08;226803;1235;138625;-66
2022/12/09 02:51:06;;;;;;;63.10;33.80;;;;;;;5.48;64.73;98301.27;226785;1238;138160;-66
2022/12/09 02:56:14;;;;;;;61.40;33.20;;;;;;;5.39;65.17;98303.54;226624;1239;138979;-66
2022/12/09 03:01:29;;;;;;;58.30;32.50;;;;;;;5.46;65.05;98302.09;226664;1249;138897;-64
2022/12/09 03:06:43;;;;;;;67.00;33.40;;;;;;;5.62;65.02;98304.09;226605;1238;138687;-63
2022/12/09 03:11:54;;;;;;;62.80;34.30;;;;;;;5.64;64.68;98305.70;227758;1226;138600;-63
2022/12/09 03:17:25;;;;;;;60.40;33.20;;;;;;;5.63;64.64;98306.81;226812;1238;138516;-64
2022/12/09 03:22:34;;;;;;;57.70;33.50;;;;;;;5.62;64.42;98295.81;226981;1238;138085;-63
2022/12/09 03:27:52;;;;;;;55.30;32.40;;;;;;;5.58;64.76;98293.58;226935;1249;138246;-63
2022/12/09 03:33:02;;;;;;;62.90;34.40;;;;;;;5.54;64.72;98287.96;227812;1241;138620;-63
2022/12/09 03:38:11;;;;;;;59.60;33.90;;;;;;;5.54;64.73;98281.45;227671;1227;138528;-63
2022/12/09 03:43:25;;;;;;;63.20;33.40;;;;;;;5.49;65.14;98282.63;227828;1231;138176;-63
2022/12/09 03:48:30;;;;;;;63.80;34.50;;;;;;;5.43;65.38;98288.75;227043;1247;138347;-64
2022/12/09 03:53:55;;;;;;;65.00;34.40;;;;;;;5.38;65.39;98287.04;226504;1241;138090;-63
2022/12/09 03:59:03;;;;;;;68.20;34.00;;;;;;;5.36;65.32;98289.61;227710;1237;138162;-64
2022/12/09 04:04:14;;;;;;;72.30;36.20;;;;;;;5.40;65.19;98288.70;226984;1249;138167;-64
2022/12/09 04:09:24;;;;;;;129.40;80.20;;;;;;;5.42;65.42;98285.09;226884;1241;139166;-63
2022/12/09 04:14:28;;;;;;;71.00;38.00;;;;;;;5.39;65.28;98288.93;226749;1233;139247;-63
2022/12/09 04:19:33;;;;;;;69.80;41.60;;;;;;;5.33;65.70;98291.73;226961;1234;139155;-63
2022/12/09 04:24:37;;;;;;;59.00;34.40;;;;;;;5.31;65.29;98287.80;226936;1241;138538;-63
2022/12/09 04:29:44;;;;;;;57.10;33.20;;;;;;;5.26;65.37;98292.09;227780;1234;138695;-63
2022/12/09 04:34:48;;;;;;;74.80;45.20;;;;;;;5.26;65.68;98292.44;227012;1249;138878;-62
2022/12/09 04:39:54;;;;;;;;;;;;;;;5.30;65.26;98286.07;227732;1242;138655;-63
2022/12/09 04:45:01;;;;;;;58.60;32.50;;;;;;;5.26;65.03;98290.51;227924;1231;125166;-64
2022/12/09 04:50:06;;;;;;;56.30;32.90;;;;;;;5.19;65.21;98296.51;226852;1241;138315;-63
2022/12/09 04:55:18;;;;;;;63.10;33.90;;;;;;;5.15;64.76;98294.23;226965;1241;138789;-63
2022/12/09 05:00:37;;;;;;;57.70;32.70;;;;;;;5.15;64.86;98294.39;227033;1244;138661;-64
2022/12/09 05:05:45;;;;;;;71.50;41.80;;;;;;;5.22;65.35;98294.94;226987;1241;138021;-63
2022/12/09 05:10:55;;;;;;;53.70;32.90;;;;;;;5.24;65.12;98302.00;226954;1236;137951;-63
2022/12/09 05:16:24;;;;;;;57.00;31.70;;;;;;;5.16;65.29;98300.35;226689;1249;138996;-63
2022/12/09 05:21:28;;;;;;;55.90;32.20;;;;;;;5.05;64.95;98300.75;226754;1234;138070;-63
2022/12/09 05:26:38;;;;;;;55.40;33.20;;;;;;;4.95;65.30;98295.81;226684;1241;138441;-65
2022/12/09 05:31:42;;;;;;;64.10;33.80;;;;;;;4.86;65.34;98291.14;226880;1234;138378;-65
2022/12/09 05:36:51;;;;;;;67.80;32.50;;;;;;;4.75;65.49;98296.31;227670;1226;137950;-65
2022/12/09 05:42:07;;;;;;;67.00;33.90;;;;;;;4.62;65.34;98293.06;226731;1248;139045;-65
2022/12/09 05:47:25;;;;;;;76.90;34.90;;;;;;;4.51;65.53;98295.92;227048;1249;138133;-65
2022/12/09 05:52:29;;;;;;;64.40;34.70;;;;;;;4.43;65.64;98291.76;227822;1233;140468;-64
2022/12/09 05:57:35;;;;;;;77.60;33.90;;;;;;;4.31;65.45;98297.79;226842;1246;138120;-64
2022/12/09 06:02:40;;;;;;;64.60;33.30;;;;;;;4.16;65.75;98297.10;227691;1236;139247;-65
2022/12/09 06:07:44;;;;;;;59.20;33.40;;;;;;;4.14;65.93;98294.20;226592;1249;138712;-65
2022/12/09 06:12:52;;;;;;;66.90;34.70;;;;;;;4.15;65.57;98297.18;226436;1234;138951;-65
2022/12/09 06:17:56;;;;;;;59.10;35.00;;;;;;;4.16;65.60;98297.48;227576;1234;139229;-65
2022/12/09 06:23:06;;;;;;;61.50;34.90;;;;;;;4.13;65.33;98294.95;227724;1241;138301;-65
2022/12/09 06:28:13;;;;;;;62.80;34.60;;;;;;;4.06;65.30;98300.95;226837;1249;138974;-65
2022/12/09 06:33:17;;;;;;;63.90;33.40;;;;;;;3.98;65.63;98310.23;226567;1242;138832;-66
2022/12/09 06:38:44;;;;;;;58.30;33.40;;;;;;;3.93;65.88;98315.04;226734;1241;138731;-65
2022/12/09 06:43:48;;;;;;;57.90;32.10;;;;;;;3.87;65.72;98313.90;226747;1226;138441;-65
2022/12/09 06:49:14;;;;;;;57.70;33.70;;;;;;;3.83;65.65;98315.16;227012;1249;138855;-65
2022/12/09 06:54:21;;;;;;;62.70;34.70;;;;;;;3.75;66.04;98315.38;226878;1241;138583;-63
2022/12/09 06:59:28;;;;;;;61.70;32.90;;;;;;;3.74;65.96;98310.67;227889;1227;138305;-64
2022/12/09 07:04:32;;;;;;;59.20;32.90;;;;;;;3.72;66.21;98305.14;227352;1231;138538;-64
2022/12/09 07:09:39;;;;;;;59.40;32.50;;;;;;;3.70;66.23;98311.02;227009;1249;138416;-65
2022/12/09 07:14:45;;;;;;;57.50;31.90;;;;;;;3.67;66.30;98312.89;226468;1237;138476;-64
2022/12/09 07:19:49;;;;;;;56.10;31.50;;;;;;;3.61;66.47;98327.05;226672;1249;138362;-64
2022/12/09 07:24:54;;;;;;;55.60;32.10;;;;;;;3.56;66.66;98317.94;226878;1233;138617;-64
2022/12/09 07:30:00;;;;;;;48.90;29.80;;;;;;;3.61;66.42;98296.89;226867;1240;138348;-64
2022/12/09 07:35:10;;;;;;;65.90;34.40;;;;;;;3.65;66.88;98293.17;227800;1241;138813;-63
2022/12/09 07:40:25;;;;;;;65.70;33.60;;;;;;;3.74;67.05;98285.59;226599;1243;138372;-63
2022/12/09 07:45:33;;;;;;;69.40;34.80;;;;;;;3.85;67.01;98273.15;226783;1249;138449;-63
2022/12/09 07:51:03;;;;;;;64.90;36.30;;;;;;;3.90;67.23;98271.50;226807;1237;138960;-65
2022/12/09 07:56:22;;;;;;;57.60;33.70;;;;;;;3.93;67.39;98273.45;226454;1249;138115;-65
2022/12/09 08:01:42;;;;;;;55.20;32.40;;;;;;;3.99;67.21;98267.88;226500;1244;137785;-65
2022/12/09 08:07:58;;;;;;;;;;;;;;;;;;;;;
2022/12/09 08:13:07;;;;;;;53.60;34.40;;;;;;;4.00;67.40;98270.83;227045;1248;138283;-64
2022/12/09 08:18:25;;;;;;;55.20;33.90;;;;;;;4.03;67.51;98278.75;226522;1226;138386;-64
2022/12/09 08:23:40;;;;;;;56.50;34.10;;;;;;;4.05;67.50;98280.77;226774;1241;137944;-65
2022/12/09 08:28:49;;;;;;;57.40;34.90;;;;;;;4.09;67.34;98281.82;226803;1234;138073;-64
2022/12/09 08:33:55;;;;;;;61.10;34.10;;;;;;;4.14;67.08;98283.88;226575;1235;137714;-63
2022/12/09 08:39:05;;;;;;;57.40;33.70;;;;;;;4.16;67.13;98282.69;227742;1226;138325;-63
2022/12/09 08:44:18;;;;;;;57.70;34.60;;;;;;;4.21;67.17;98278.59;226781;1243;138227;-65
2022/12/09 08:49:33;;;;;;;56.60;34.50;;;;;;;4.35;66.91;98275.14;226781;1241;138764;-64
2022/12/09 08:54:37;;;;;;;58.60;35.40;;;;;;;4.51;66.74;98276.92;226870;1245;139488;-64
2022/12/09 08:59:42;;;;;;;64.20;35.80;;;;;;;4.67;66.36;98269.09;226643;1226;138745;-64
2022/12/09 09:04:48;;;;;;;59.30;35.30;;;;;;;4.84;66.45;98268.95;226561;1234;138781;-63
2022/12/09 09:09:53;;;;;;;51.70;32.90;;;;;;;4.97;66.25;98267.77;227274;1249;138995;-63
2022/12/09 09:15:02;;;;;;;61.50;35.20;;;;;;;5.10;65.66;98263.60;227368;1235;139758;-65
2022/12/09 09:20:09;;;;;;;61.60;35.80;;;;;;;5.20;65.48;98260.77;226459;1227;139064;-63
2022/12/09 09:25:15;;;;;;;60.30;35.10;;;;;;;5.29;65.27;98261.18;227395;1226;138629;-63
2022/12/09 09:30:22;;;;;;;56.70;34.70;;;;;;;5.35;64.94;98259.77;226518;1228;138592;-65
2022/12/09 09:36:11;;;;;;;63.50;35.70;;;;;;;5.49;64.96;98254.45;227253;1236;138745;-63
2022/12/09 09:41:25;;;;;;;60.80;35.70;;;;;;;5.65;64.69;98251.48;226521;1248;138033;-63
2022/12/09 09:47:03;;;;;;;60.60;34.90;;;;;;;5.79;64.51;98237.31;227071;1243;138356;-64
2022/12/09 09:52:19;;;;;;;66.20;36.40;;;;;;;5.94;64.42;98230.36;226172;1239;139445;-64
2022/12/09 09:58:09;;;;;;;60.00;34.90;;;;;;;6.07;64.21;98228.58;226569;1234;137788;-64
2022/12/09 10:04:19;;;;;;;55.40;33.60;;;;;;;6.23;63.53;98226.08;226239;1237;138357;-65
2022/12/09 10:10:26;;;;;;;50.70;31.40;;;;;;;6.42;63.03;98223.57;226256;1236;139137;-66
2022/12/09 10:15:29;;;;;;;52.80;32.20;;;;;;;6.58;62.49;98215.95;226109;1241;138687;-65
2022/12/09 10:20:46;;;;;;;168.90;101.50;;;;;;;6.76;62.33;98210.44;227475;1242;138562;-63
2022/12/09 10:25:56;;;;;;;41.00;25.10;;;;;;;7.01;61.12;98207.52;226221;1245;138681;-65
2022/12/09 10:31:02;;;;;;;34.80;20.50;;;;;;;7.13;59.81;98199.39;226146;1237;138400;-63
2022/12/09 10:36:36;;;;;;;27.00;18.10;;;;;;;7.20;58.98;98190.34;226540;1241;138481;-64
2022/12/09 10:47:39;;;;;;;29.70;17.70;;;;;;;7.15;57.85;98176.01;226717;1235;138167;-63
2022/12/09 10:52:54;;;;;;;26.00;16.20;;;;;;;7.08;57.97;98168.11;226455;1250;138684;-65
2022/12/09 10:58:16;;;;;;;93.20;55.40;;;;;;;7.06;58.06;98168.45;226581;1245;138087;-63
2022/12/09 11:03:45;;;;;;;31.60;17.90;;;;;;;7.11;58.30;98176.02;227523;1241;139577;-64
2022/12/09 11:09:25;;;;;;;25.30;15.60;;;;;;;7.16;57.82;98179.64;226678;1245;138371;-64
2022/12/09 11:14:51;;;;;;;31.70;17.00;;;;;;;7.25;57.58;98174.80;226451;1244;139984;-65
2022/12/09 11:20:21;;;;;;;32.50;17.20;;;;;;;7.36;57.02;98157.05;226589;1237;138234;-65
2022/12/09 11:25:48;;;;;;;;;;;;;;;;;;;;;
2022/12/09 11:30:59;;;;;;;38.10;19.10;;;;;;;7.58;56.52;98160.89;226692;1249;138359;-65
2022/12/09 11:36:36;;;;;;;39.60;20.10;;;;;;;7.59;56.11;98161.05;226404;1240;139362;-64
2022/12/09 11:47:55;;;;;;;29.40;15.90;;;;;;;7.53;55.86;98162.66;227547;1241;138310;-65
2022/12/09 11:53:32;;;;;;;21.50;13.40;;;;;;;7.51;54.50;98158.39;226871;1228;139092;-66
2022/12/09 11:59:15;;;;;;;28.60;15.70;;;;;;;7.56;54.30;98157.52;226786;1227;138431;-65
2022/12/09 12:05:06;;;;;;;29.20;14.60;;;;;;;7.60;55.10;98148.44;226880;1236;138138;-67
2022/12/09 12:10:26;;;;;;;22.40;12.90;;;;;;;7.57;54.24;98151.30;227519;1234;138007;-68
2022/12/09 12:15:58;;;;;;;25.10;13.30;;;;;;;7.49;53.40;98132.51;226201;1251;138671;-66
2022/12/09 12:21:44;;;;;;;29.10;12.50;;;;;;;7.42;53.89;98111.69;226727;1238;138507;-67
2022/12/09 12:27:51;;;;;;;25.60;15.00;;;;;;;7.38;55.07;98088.97;226822;1234;138377;-67
2022/12/09 12:33:47;;;;;;;25.80;13.70;;;;;;;7.31;56.11;98083.38;227053;1249;137596;-67
2022/12/09 12:39:26;;;;;;;26.80;14.10;;;;;;;7.24;56.54;98104.68;226782;1232;138315;-66
2022/12/09 12:52:02;;;;;;;26.20;13.20;;;;;;;7.13;57.07;98094.81;226893;1240;139158;-68
2022/12/09 12:57:25;;;;;;;27.80;14.90;;;;;;;7.10;57.23;98094.11;226722;1240;138180;-66
2022/12/09 13:02:46;;;;;;;23.00;12.60;;;;;;;7.04;57.38;98090.92;226854;1238;138890;-68
2022/12/09 13:07:59;;;;;;;20.80;10.00;;;;;;;7.01;57.24;98087.75;227617;1228;138114;-67
2022/12/09 13:13:18;;;;;;;90.30;50.90;;;;;;;7.03;57.11;98079.38;227546;1234;138867;-66
2022/12/09 13:18:34;;;;;;;15.40;9.10;;;;;;;7.08;57.08;98078.86;226693;1227;138500;-66
2022/12/09 13:24:07;;;;;;;18.60;8.60;;;;;;;7.05;56.70;98074.50;227359;1241;137968;-66
2022/12/09 13:29:47;;;;;;;12.70;7.30;;;;;;;7.01;56.28;98074.92;228016;1240;138465;-66
2022/12/09 13:35:03;;;;;;;14.30;6.30;;;;;;;6.96;56.11;98057.95;226585;1243;138684;-65
2022/12/09 13:40:20;;;;;;;19.50;7.50;;;;;;;6.92;55.98;98048.19;226732;1227;137316;-66
2022/12/09 13:45:36;;;;;;;13.10;8.10;;;;;;;6.87;56.15;98047.58;227063;1236;138677;-67
2022/12/09 13:50:43;;;;;;;16.70;8.50;;;;;;;6.84;56.16;98036.10;226924;1233;138681;-67
2022/12/09 13:56:02;;;;;;;20.40;9.60;;;;;;;6.81;56.67;98027.85;226796;1241;138148;-66
2022/12/09 14:01:33;;;;;;;16.40;11.00;;;;;;;6.80;56.87;98015.39;226787;1240;138848;-67
2022/12/09 14:08:00;;;;;;;20.30;12.70;;;;;;;6.78;57.35;98019.20;226691;1244;138635;-67
2022/12/09 14:13:25;;;;;;;20.50;12.80;;;;;;;6.79;57.75;98013.70;226737;1241;138961;-67
2022/12/09 14:18:48;;;;;;;27.00;13.50;;;;;;;6.77;57.85;98004.82;226590;1241;139015;-66
2022/12/09 14:24:10;;;;;;;24.50;13.90;;;;;;;6.73;58.22;98017.80;227615;1236;138055;-66
2022/12/09 14:29:51;;;;;;;25.00;14.90;;;;;;;6.69;58.47;98021.40;226769;1240;138821;-68
2022/12/09 14:35:11;;;;;;;23.40;13.70;;;;;;;6.65;58.79;98020.77;227525;1227;138250;-68
2022/12/09 14:40:49;;;;;;;20.00;11.90;;;;;;;6.64;58.52;98017.48;226421;1234;138456;-67
2022/12/09 14:45:59;;;;;;;18.40;10.10;;;;;;;6.58;58.11;98019.27;226486;1237;138450;-66
2022/12/09 14:51:14;;;;;;;16.20;9.70;;;;;;;6.51;58.33;98022.86;227588;1234;138933;-68
2022/12/09 14:56:21;;;;;;;15.20;10.10;;;;;;;6.45;58.71;98030.66;226969;1240;138338;-68
2022/12/09 15:01:48;;;;;;;19.10;10.50;;;;;;;6.39;59.38;98033.48;227641;1235;138828;-67
2022/12/09 15:07:21;;;;;;;13.90;9.50;;;;;;;6.35;59.10;98035.10;227690;1229;138736;-66
2022/12/09 15:12:46;;;;;;;14.20;9.70;;;;;;;6.18;59.42;98027.52;226827;1241;138908;-65
2022/12/09 15:18:29;;;;;;;14.70;10.30;;;;;;;6.04;60.01;98022.95;227523;1231;138128;-67
2022/12/09 15:23:44;;;;;;;19.10;10.90;;;;;;;5.88;60.67;98027.02;226461;1241;138840;-65
2022/12/09 15:28:52;;;;;;;14.60;10.40;;;;;;;5.74;61.51;98019.21;225549;1237;139245;-69
2022/12/09 15:34:19;;;;;;;18.80;11.50;;;;;;;5.61;61.98;98013.65;227339;1231;138263;-70
2022/12/09 15:39:57;;;;;;;;;;;;;;;;;;;;;
2022/12/09 15:45:10;;;;;;;19.10;11.60;;;;;;;5.46;63.10;97993.75;227596;1230;138201;-66
2022/12/09 15:50:17;;;;;;;19.40;13.00;;;;;;;5.37;63.21;97983.02;227520;1243;138502;-65
2022/12/09 15:55:40;;;;;;;19.00;12.80;;;;;;;5.28;63.54;97972.95;227673;1219;137944;-66
2022/12/09 16:00:50;;;;;;;204.30;131.00;;;;;;;5.25;64.67;97963.70;226666;1241;138355;-66
2022/12/09 16:06:15;;;;;;;22.10;14.40;;;;;;;5.32;64.78;97950.94;226748;1238;138645;-63
2022/12/09 16:11:40;;;;;;;25.40;15.80;;;;;;;5.25;64.79;97942.20;226914;1239;138889;-64
2022/12/09 16:16:51;;;;;;;25.10;16.20;;;;;;;5.41;64.59;97934.23;226857;1237;138879;-63
2022/12/09 16:21:59;;;;;;;27.50;16.70;;;;;;;5.29;64.05;97927.77;226399;1234;139086;-64
2022/12/09 16:27:04;;;;;;;25.00;16.40;;;;;;;5.18;64.31;97918.50;226816;1249;138676;-65
2022/12/09 16:32:30;;;;;;;25.40;17.00;;;;;;;5.08;64.71;97912.23;226509;1245;138916;-65
2022/12/09 16:37:40;;;;;;;25.70;17.10;;;;;;;4.94;64.88;97906.70;226343;1240;138338;-65
2022/12/09 16:42:47;;;;;;;37.80;25.60;;;;;;;4.90;65.90;97898.89;227529;1242;138405;-65
2022/12/09 16:47:55;;;;;;;25.90;16.80;;;;;;;4.89;65.49;97887.85;226650;1237;139198;-64
2022/12/09 16:52:59;;;;;;;26.60;16.50;;;;;;;4.77;65.36;97879.77;226762;1235;138880;-63
2022/12/09 16:58:04;;;;;;;27.40;17.50;;;;;;;4.65;65.87;97875.18;226671;1243;138836;-65
2022/12/09 17:03:14;;;;;;;59.60;37.80;;;;;;;4.61;66.29;97863.14;226654;1251;139265;-64
2022/12/09 17:08:18;;;;;;;25.70;17.00;;;;;;;4.59;66.56;97859.74;226656;1244;138805;-65
2022/12/09 17:13:21;;;;;;;24.20;16.50;;;;;;;4.53;66.25;97858.48;226589;1255;139530;-66
2022/12/09 17:18:27;;;;;;;26.20;17.00;;;;;;;4.47;66.30;97862.14;226789;1237;138336;-66
2022/12/09 17:23:32;;;;;;;512.20;315.00;;;;;;;4.43;66.91;97863.79;226595;1238;139197;-65
2022/12/09 17:28:43;;;;;;;27.00;17.50;;;;;;;4.46;67.27;97865.37;226825;1235;139986;-65
2022/12/09 17:33:48;;;;;;;24.80;17.80;;;;;;;4.48;66.86;97867.88;226799;1245;139044;-65
2022/12/09 17:38:52;;;;;;;27.00;18.00;;;;;;;4.50;66.85;97859.55;226731;1241;138536;-65
2022/12/09 17:43:56;;;;;;;27.80;17.80;;;;;;;4.49;66.96;97854.27;226829;1249;138177;-66
2022/12/09 17:49:13;;;;;;;24.60;17.50;;;;;;;4.46;66.77;97850.08;226639;1233;139007;-65
2022/12/09 17:54:30;;;;;;;28.30;19.80;;;;;;;4.41;66.85;97845.97;226724;1238;138269;-66
2022/12/09 17:59:37;;;;;;;28.80;19.80;;;;;;;4.36;66.97;97843.27;227718;1243;138056;-65
2022/12/09 18:04:41;;;;;;;29.30;19.70;;;;;;;4.30;67.47;97836.39;226862;1238;139140;-65
2022/12/09 18:09:50;;;;;;;33.50;22.40;;;;;;;4.25;67.20;97828.06;226527;1237;138696;-65
2022/12/09 18:14:57;;;;;;;33.70;21.60;;;;;;;4.22;67.83;97823.50;226462;1252;139276;-64
2022/12/09 18:20:01;;;;;;;30.60;20.90;;;;;;;4.18;67.64;97818.67;226721;1251;138549;-65
2022/12/09 18:25:06;;;;;;;29.10;19.10;;;;;;;4.14;67.66;97819.92;226603;1238;138441;-64
2022/12/09 18:30:12;;;;;;;28.60;19.20;;;;;;;4.10;68.10;97817.19;226742;1240;140216;-65
2022/12/09 18:35:16;;;;;;;27.90;18.40;;;;;;;4.11;68.24;97807.98;226858;1238;139077;-65
2022/12/09 18:40:20;;;;;;;25.60;17.30;;;;;;;4.17;68.19;97797.13;226722;1242;140119;-65
2022/12/09 18:45:26;;;;;;;23.60;15.70;;;;;;;4.22;67.91;97789.65;226791;1241;138814;-65
2022/12/09 18:50:30;;;;;;;21.60;14.90;;;;;;;4.25;68.16;97788.42;226647;1238;138987;-64
2022/12/09 18:55:40;;;;;;;18.50;13.60;;;;;;;4.25;67.96;97789.65;227661;1227;138925;-64
2022/12/09 19:00:47;;;;;;;20.50;13.30;;;;;;;4.24;68.18;97776.92;226789;1243;138539;-65
2022/12/09 19:05:51;;;;;;;17.90;12.70;;;;;;;4.20;68.07;97770.08;226922;1234;138318;-65
2022/12/09 19:10:56;;;;;;;167.90;95.80;;;;;;;4.20;68.63;97757.46;226849;1236;138129;-65
2022/12/09 19:16:08;;;;;;;20.50;13.40;;;;;;;4.26;68.05;97760.98;227369;1234;139436;-65
2022/12/09 19:21:18;;;;;;;15.80;11.00;;;;;;;4.20;67.90;97751.82;226831;1234;139420;-65
2022/12/09 19:26:25;;;;;;;15.50;11.20;;;;;;;4.16;68.31;97744.52;226341;1240;138345;-64
2022/12/09 19:31:30;;;;;;;15.20;9.90;;;;;;;4.13;68.50;97743.46;226797;1249;138307;-65
2022/12/09 19:36:38;;;;;;;15.50;9.40;;;;;;;4.09;68.57;97734.04;226914;1250;138201;-65
2022/12/09 19:41:43;;;;;;;13.00;9.00;;;;;;;4.12;68.41;97729.47;227801;1231;138844;-64
2022/12/09 19:46:49;;;;;;;14.70;10.20;;;;;;;4.16;68.53;97726.27;226801;1241;139121;-64
2022/12/09 19:51:53;;;;;;;11.40;8.80;;;;;;;4.20;68.37;97716.91;227477;1233;139107;-63
2022/12/09 19:56:57;;;;;;;11.30;8.00;;;;;;;4.25;68.40;97718.20;226841;1238;138454;-64
2022/12/09 20:02:00;;;;;;;10.10;7.80;;;;;;;4.25;68.49;97716.45;226534;1238;139196;-67
2022/12/09 20:07:05;;;;;;;12.50;8.60;;;;;;;4.26;68.20;97709.70;226483;1249;139420;-64
2022/12/09 20:12:11;;;;;;;10.80;8.40;;;;;;;4.23;68.41;97711.98;226889;1248;139374;-64
2022/12/09 20:17:18;;;;;;;11.70;8.20;;;;;;;4.18;68.42;97705.95;226901;1249;138123;-66
2022/12/09 20:22:22;;;;;;;11.30;8.10;;;;;;;4.16;68.41;97714.32;227685;1242;138232;-64
2022/12/09 20:27:29;;;;;;;10.80;8.50;;;;;;;4.14;68.61;97716.05;226942;1238;138798;-64
2022/12/09 20:32:32;;;;;;;12.70;9.10;;;;;;;4.12;68.59;97704.73;226935;1234;138179;-66
2022/12/09 20:37:57;;;;;;;13.20;9.50;;;;;;;4.10;68.87;97697.31;226842;1249;138227;-65
2022/12/09 20:43:03;;;;;;;11.90;8.90;;;;;;;4.09;68.83;97684.55;226952;1235;138549;-66
2022/12/09 20:48:07;;;;;;;40.70;26.10;;;;;;;4.18;69.79;97689.45;226817;1249;139354;-66
2022/12/09 20:53:11;;;;;;;14.20;9.90;;;;;;;4.40;69.31;97678.36;226934;1249;139847;-66
2022/12/09 20:58:14;;;;;;;12.50;9.40;;;;;;;4.40;68.68;97681.52;227751;1241;138334;-64
2022/12/09 21:03:18;;;;;;;13.60;9.60;;;;;;;4.39;68.72;97674.55;226800;1227;138243;-65
2022/12/09 21:08:43;;;;;;;14.50;9.70;;;;;;;4.36;68.42;97677.17;226836;1249;138268;-64
2022/12/09 21:13:50;;;;;;;13.70;10.30;;;;;;;4.31;68.64;97677.30;226245;1235;138854;-66
2022/12/09 21:18:57;;;;;;;11.70;8.90;;;;;;;4.26;68.43;97684.95;226407;1240;138146;-67
2022/12/09 21:24:03;;;;;;;219.80;118.90;;;;;;;4.22;69.03;97685.20;227447;1227;139136;-68
2022/12/09 21:29:10;;;;;;;18.80;12.40;;;;;;;4.25;69.10;97689.75;226482;1250;140157;-66
2022/12/09 21:34:14;;;;;;;14.10;9.20;;;;;;;4.21;68.75;97692.46;226685;1237;138477;-65
2022/12/09 21:39:18;;;;;;;12.30;8.90;;;;;;;4.14;69.01;97689.52;226603;1234;138265;-66
2022/12/09 21:51:23;;;;;;;12.20;7.40;;;;;;;4.03;69.23;97678.21;226363;1234;138507;-66
2022/12/09 22:03:13;;;;;;;10.40;7.50;;;;;;;4.09;69.20;97674.03;226494;1243;139192;-66
2022/12/09 22:08:37;;;;;;;9.20;7.00;;;;;;;4.10;69.39;97674.31;226691;1248;138620;-65
2022/12/09 22:14:25;;;;;;;8.20;6.50;;;;;;;4.10;69.54;97672.23;226759;1244;138725;-64
2022/12/09 22:19:39;;;;;;;58.60;37.50;;;;;;;4.09;69.33;97670.69;226803;1244;137823;-65
2022/12/09 22:24:48;;;;;;;18.00;11.50;;;;;;;4.14;69.51;97669.89;225673;1237;138924;-68
2022/12/09 22:29:51;;;;;;;94.20;68.90;;;;;;;4.14;69.68;97665.29;225493;1248;138403;-68
2022/12/09 22:34:55;;;;;;;13.20;8.10;;;;;;;4.27;69.98;97657.16;225560;1233;139513;-68
2022/12/09 22:39:58;;;;;;;9.30;6.10;;;;;;;4.22;69.32;97653.61;225721;1245;138245;-66
2022/12/09 22:45:04;;;;;;;9.10;5.20;;;;;;;4.14;69.29;97648.99;227178;1231;138025;-67
2022/12/09 22:50:07;;;;;;;7.50;5.50;;;;;;;4.08;69.24;97642.33;226486;1240;138215;-66
2022/12/09 22:55:11;;;;;;;8.20;5.40;;;;;;;4.00;69.19;97647.87;226726;1245;138517;-67
2022/12/09 23:00:14;;;;;;;6.70;4.70;;;;;;;4.00;69.66;97635.38;226618;1236;138804;-67
2022/12/09 23:05:17;;;;;;;7.70;5.20;;;;;;;4.05;69.41;97634.75;227688;1226;138994;-69
2022/12/09 23:10:21;;;;;;;7.30;5.10;;;;;;;4.11;69.63;97634.44;226594;1235;138698;-66
2022/12/09 23:15:24;;;;;;;7.30;5.00;;;;;;;4.12;69.26;97638.95;226720;1238;138333;-66
2022/12/09 23:20:28;;;;;;;7.80;4.60;;;;;;;4.12;69.26;97628.73;226788;1237;137988;-67
2022/12/09 23:37:24;;;;;;;6.30;4.60;;;;;;;4.03;69.81;97627.16;196572;1237;137614;-64
